sensor_id;sensor_type;location;lat;lon;timestamp;temperature;humidity
5940;DHT22;2995;-31.998;115.906;2023-05-07T00:02:11;15.40;99.90
5940;DHT22;2995;-31.998;115.906;2023-05-07T00:04:43;15.50;99.90
5940;DHT22;2995;-31.998;115.906;2023-05-07T00:07:14;15.40;99.90
5940;DHT22;2995;-31.998;115.906;2023-05-07T00:09:45;15.30;99.90
5940;DHT22;2995;-31.998;115.906;2023-05-07T00:12:16;15.40;99.90
5940;DHT22;2995;-31.998;115.906;2023-05-07T00:14:48;15.40;99.90
5940;DHT22;2995;-31.998;115.906;2023-05-07T00:17:21;15.50;99.90
5940;DHT22;2995;-31.998;115.906;2023-05-07T00:19:53;15.60;99.90
5940;DHT22;2995;-31.998;115.906;2023-05-07T00:22:24;15.60;99.90
5940;DHT22;2995;-31.998;115.906;2023-05-07T00:24:55;15.70;99.90
5940;DHT22;2995;-31.998;115.906;2023-05-07T00:27:27;15.70;99.90
5940;DHT22;2995;-31.998;115.906;2023-05-07T00:29:58;15.80;99.90
5940;DHT22;2995;-31.998;115.906;2023-05-07T00:32:31;15.80;99.90
5940;DHT22;2995;-31.998;115.906;2023-05-07T00:35:02;15.80;99.90
5940;DHT22;2995;-31.998;115.906;2023-05-07T00:37:34;15.80;99.90
5940;DHT22;2995;-31.998;115.906;2023-05-07T00:40:06;15.80;99.90
5940;DHT22;2995;-31.998;115.906;2023-05-07T00:42:38;15.80;99.90
5940;DHT22;2995;-31.998;115.906;2023-05-07T00:45:10;15.90;99.90
5940;DHT22;2995;-31.998;115.906;2023-05-07T00:47:43;16.00;99.90
5940;DHT22;2995;-31.998;115.906;2023-05-07T00:50:14;16.00;99.90
5940;DHT22;2995;-31.998;115.906;2023-05-07T00:52:48;16.00;99.90
5940;DHT22;2995;-31.998;115.906;2023-05-07T00:55:19;16.10;99.90
5940;DHT22;2995;-31.998;115.906;2023-05-07T00:57:51;16.10;99.90
5940;DHT22;2995;-31.998;115.906;2023-05-07T01:00:22;16.10;99.90
5940;DHT22;2995;-31.998;115.906;2023-05-07T01:02:55;16.10;99.90
5940;DHT22;2995;-31.998;115.906;2023-05-07T01:05:27;16.10;99.90
5940;DHT22;2995;-31.998;115.906;2023-05-07T01:07:59;16.10;99.90
5940;DHT22;2995;-31.998;115.906;2023-05-07T01:10:31;16.20;99.90
5940;DHT22;2995;-31.998;115.906;2023-05-07T01:13:03;16.30;99.90
5940;DHT22;2995;-31.998;115.906;2023-05-07T01:15:34;16.30;99.90
5940;DHT22;2995;-31.998;115.906;2023-05-07T01:18:08;16.20;99.90
5940;DHT22;2995;-31.998;115.906;2023-05-07T01:20:40;16.20;99.90
5940;DHT22;2995;-31.998;115.906;2023-05-07T01:23:13;16.20;99.90
5940;DHT22;2995;-31.998;115.906;2023-05-07T01:25:52;16.30;99.90
5940;DHT22;2995;-31.998;115.906;2023-05-07T01:28:23;16.30;99.90
5940;DHT22;2995;-31.998;115.906;2023-05-07T01:30:58;16.30;99.90
5940;DHT22;2995;-31.998;115.906;2023-05-07T01:33:33;16.40;99.90
5940;DHT22;2995;-31.998;115.906;2023-05-07T01:36:06;16.30;99.90
5940;DHT22;2995;-31.998;115.906;2023-05-07T01:38:41;16.50;99.90
5940;DHT22;2995;-31.998;115.906;2023-05-07T01:41:13;16.40;99.90
5940;DHT22;2995;-31.998;115.906;2023-05-07T01:43:44;16.40;99.90
5940;DHT22;2995;-31.998;115.906;2023-05-07T01:46:16;16.40;99.90
5940;DHT22;2995;-31.998;115.906;2023-05-07T01:48:48;16.50;99.90
5940;DHT22;2995;-31.998;115.906;2023-05-07T01:51:20;16.60;99.90
5940;DHT22;2995;-31.998;115.906;2023-05-07T01:53:54;16.60;99.90
5940;DHT22;2995;-31.998;115.906;2023-05-07T01:56:26;16.60;99.90
5940;DHT22;2995;-31.998;115.906;2023-05-07T01:58:58;16.60;99.90
5940;DHT22;2995;-31.998;115.906;2023-05-07T02:01:30;16.70;99.90
5940;DHT22;2995;-31.998;115.906;2023-05-07T02:04:01;16.80;99.90
5940;DHT22;2995;-31.998;115.906;2023-05-07T02:06:32;16.90;99.90
5940;DHT22;2995;-31.998;115.906;2023-05-07T02:09:06;16.90;99.90
5940;DHT22;2995;-31.998;115.906;2023-05-07T02:11:37;16.90;99.90
5940;DHT22;2995;-31.998;115.906;2023-05-07T02:14:09;17.00;99.90
5940;DHT22;2995;-31.998;115.906;2023-05-07T02:16:40;17.10;99.90
5940;DHT22;2995;-31.998;115.906;2023-05-07T02:19:12;17.10;99.90
5940;DHT22;2995;-31.998;115.906;2023-05-07T02:21:43;17.20;99.90
5940;DHT22;2995;-31.998;115.906;2023-05-07T02:24:16;17.30;99.90
5940;DHT22;2995;-31.998;115.906;2023-05-07T02:26:48;17.40;99.90
5940;DHT22;2995;-31.998;115.906;2023-05-07T02:29:19;17.50;99.90
5940;DHT22;2995;-31.998;115.906;2023-05-07T02:31:50;17.50;99.90
5940;DHT22;2995;-31.998;115.906;2023-05-07T02:34:21;17.50;99.90
5940;DHT22;2995;-31.998;115.906;2023-05-07T02:36:53;17.60;99.90
5940;DHT22;2995;-31.998;115.906;2023-05-07T02:39:26;17.60;99.90
5940;DHT22;2995;-31.998;115.906;2023-05-07T02:41:57;17.70;99.90
5940;DHT22;2995;-31.998;115.906;2023-05-07T02:44:29;17.70;99.90
5940;DHT22;2995;-31.998;115.906;2023-05-07T02:47:00;17.80;99.90
5940;DHT22;2995;-31.998;115.906;2023-05-07T02:49:32;17.80;99.90
5940;DHT22;2995;-31.998;115.906;2023-05-07T02:52:03;17.90;99.90
5940;DHT22;2995;-31.998;115.906;2023-05-07T02:54:36;17.90;99.90
5940;DHT22;2995;-31.998;115.906;2023-05-07T02:57:07;18.00;99.90
5940;DHT22;2995;-31.998;115.906;2023-05-07T02:59:39;18.00;99.90
5940;DHT22;2995;-31.998;115.906;2023-05-07T03:02:10;18.00;99.90
5940;DHT22;2995;-31.998;115.906;2023-05-07T03:04:42;18.10;99.90
5940;DHT22;2995;-31.998;115.906;2023-05-07T03:07:13;18.00;99.90
5940;DHT22;2995;-31.998;115.906;2023-05-07T03:09:46;18.00;99.90
5940;DHT22;2995;-31.998;115.906;2023-05-07T03:12:17;18.00;99.90
5940;DHT22;2995;-31.998;115.906;2023-05-07T03:14:49;18.10;99.90
5940;DHT22;2995;-31.998;115.906;2023-05-07T03:17:20;18.20;99.90
5940;DHT22;2995;-31.998;115.906;2023-05-07T03:19:51;18.20;99.90
5940;DHT22;2995;-31.998;115.906;2023-05-07T03:22:23;18.20;99.90
5940;DHT22;2995;-31.998;115.906;2023-05-07T03:24:56;18.30;99.90
5940;DHT22;2995;-31.998;115.906;2023-05-07T03:27:27;18.40;99.90
5940;DHT22;2995;-31.998;115.906;2023-05-07T03:29:58;18.50;99.90
5940;DHT22;2995;-31.998;115.906;2023-05-07T03:32:30;18.60;99.90
5940;DHT22;2995;-31.998;115.906;2023-05-07T03:35:01;18.70;99.90
5940;DHT22;2995;-31.998;115.906;2023-05-07T03:37:32;18.70;99.90
5940;DHT22;2995;-31.998;115.906;2023-05-07T03:40:06;18.70;99.90
5940;DHT22;2995;-31.998;115.906;2023-05-07T03:42:38;18.60;99.90
5940;DHT22;2995;-31.998;115.906;2023-05-07T03:45:10;18.60;99.90
5940;DHT22;2995;-31.998;115.906;2023-05-07T03:47:41;18.70;99.90
5940;DHT22;2995;-31.998;115.906;2023-05-07T03:50:13;18.60;99.90
5940;DHT22;2995;-31.998;115.906;2023-05-07T03:52:44;18.60;99.90
5940;DHT22;2995;-31.998;115.906;2023-05-07T03:55:17;18.70;99.90
5940;DHT22;2995;-31.998;115.906;2023-05-07T03:57:48;18.70;99.90
5940;DHT22;2995;-31.998;115.906;2023-05-07T04:00:20;18.80;99.90
5940;DHT22;2995;-31.998;115.906;2023-05-07T04:02:51;18.80;99.90
5940;DHT22;2995;-31.998;115.906;2023-05-07T04:05:22;18.80;99.90
5940;DHT22;2995;-31.998;115.906;2023-05-07T04:07:54;18.70;99.90
5940;DHT22;2995;-31.998;115.906;2023-05-07T04:10:27;18.90;99.90
5940;DHT22;2995;-31.998;115.906;2023-05-07T04:12:58;19.00;99.90
5940;DHT22;2995;-31.998;115.906;2023-05-07T04:15:29;18.90;99.90
5940;DHT22;2995;-31.998;115.906;2023-05-07T04:18:00;18.90;99.90
5940;DHT22;2995;-31.998;115.906;2023-05-07T04:20:33;18.90;99.90
5940;DHT22;2995;-31.998;115.906;2023-05-07T04:23:05;18.90;99.90
5940;DHT22;2995;-31.998;115.906;2023-05-07T04:25:39;19.00;99.90
5940;DHT22;2995;-31.998;115.906;2023-05-07T04:28:10;19.10;99.90
5940;DHT22;2995;-31.998;115.906;2023-05-07T04:30:42;19.20;99.90
5940;DHT22;2995;-31.998;115.906;2023-05-07T04:33:14;19.30;99.90
5940;DHT22;2995;-31.998;115.906;2023-05-07T04:35:46;19.40;99.90
5940;DHT22;2995;-31.998;115.906;2023-05-07T04:38:17;19.30;99.90
5940;DHT22;2995;-31.998;115.906;2023-05-07T04:40:50;19.30;99.90
5940;DHT22;2995;-31.998;115.906;2023-05-07T04:43:22;19.50;99.90
5940;DHT22;2995;-31.998;115.906;2023-05-07T04:45:54;19.40;99.90
5940;DHT22;2995;-31.998;115.906;2023-05-07T04:48:25;19.50;99.90
5940;DHT22;2995;-31.998;115.906;2023-05-07T04:50:57;19.50;99.90
5940;DHT22;2995;-31.998;115.906;2023-05-07T04:53:28;19.40;99.90
5940;DHT22;2995;-31.998;115.906;2023-05-07T04:56:01;19.30;99.90
5940;DHT22;2995;-31.998;115.906;2023-05-07T04:58:32;19.20;99.90
5940;DHT22;2995;-31.998;115.906;2023-05-07T05:01:04;19.30;99.90
5940;DHT22;2995;-31.998;115.906;2023-05-07T05:03:35;19.30;99.90
5940;DHT22;2995;-31.998;115.906;2023-05-07T05:06:07;19.30;99.90
5940;DHT22;2995;-31.998;115.906;2023-05-07T05:08:39;19.30;99.90
5940;DHT22;2995;-31.998;115.906;2023-05-07T05:11:12;19.30;99.90
5940;DHT22;2995;-31.998;115.906;2023-05-07T05:13:44;19.40;99.90
5940;DHT22;2995;-31.998;115.906;2023-05-07T05:16:16;19.40;99.90
5940;DHT22;2995;-31.998;115.906;2023-05-07T05:18:48;19.40;99.90
5940;DHT22;2995;-31.998;115.906;2023-05-07T05:21:20;19.40;99.90
5940;DHT22;2995;-31.998;115.906;2023-05-07T05:23:51;19.40;99.90
5940;DHT22;2995;-31.998;115.906;2023-05-07T05:26:24;19.40;99.90
5940;DHT22;2995;-31.998;115.906;2023-05-07T05:28:55;19.30;99.90
5940;DHT22;2995;-31.998;115.906;2023-05-07T05:31:27;19.40;99.90
5940;DHT22;2995;-31.998;115.906;2023-05-07T05:33:58;19.20;99.90
5940;DHT22;2995;-31.998;115.906;2023-05-07T05:36:29;19.30;99.90
5940;DHT22;2995;-31.998;115.906;2023-05-07T05:39:01;19.20;99.90
5940;DHT22;2995;-31.998;115.906;2023-05-07T05:41:34;19.10;99.90
5940;DHT22;2995;-31.998;115.906;2023-05-07T05:44:05;19.10;99.90
5940;DHT22;2995;-31.998;115.906;2023-05-07T05:46:36;19.20;99.90
5940;DHT22;2995;-31.998;115.906;2023-05-07T05:49:08;19.20;99.90
5940;DHT22;2995;-31.998;115.906;2023-05-07T05:51:39;19.20;99.90
5940;DHT22;2995;-31.998;115.906;2023-05-07T05:54:11;19.20;99.90
5940;DHT22;2995;-31.998;115.906;2023-05-07T05:56:44;19.20;99.90
5940;DHT22;2995;-31.998;115.906;2023-05-07T05:59:15;19.30;99.90
5940;DHT22;2995;-31.998;115.906;2023-05-07T06:01:47;19.30;99.90
5940;DHT22;2995;-31.998;115.906;2023-05-07T06:04:18;19.20;99.90
5940;DHT22;2995;-31.998;115.906;2023-05-07T06:06:49;19.10;99.90
5940;DHT22;2995;-31.998;115.906;2023-05-07T06:09:20;19.10;99.90
5940;DHT22;2995;-31.998;115.906;2023-05-07T06:11:53;19.20;99.90
5940;DHT22;2995;-31.998;115.906;2023-05-07T06:14:25;19.30;99.90
5940;DHT22;2995;-31.998;115.906;2023-05-07T06:16:56;19.20;99.90
5940;DHT22;2995;-31.998;115.906;2023-05-07T06:19:27;19.20;99.90
5940;DHT22;2995;-31.998;115.906;2023-05-07T06:21:59;19.20;99.90
5940;DHT22;2995;-31.998;115.906;2023-05-07T06:24:31;19.20;99.90
5940;DHT22;2995;-31.998;115.906;2023-05-07T06:27:04;19.20;99.90
5940;DHT22;2995;-31.998;115.906;2023-05-07T06:29:35;19.20;99.90
5940;DHT22;2995;-31.998;115.906;2023-05-07T06:32:11;19.30;99.90
5940;DHT22;2995;-31.998;115.906;2023-05-07T06:34:42;19.30;99.90
5940;DHT22;2995;-31.998;115.906;2023-05-07T06:37:13;19.20;99.90
5940;DHT22;2995;-31.998;115.906;2023-05-07T06:39:44;19.30;99.90
5940;DHT22;2995;-31.998;115.906;2023-05-07T06:42:18;19.30;99.90
5940;DHT22;2995;-31.998;115.906;2023-05-07T06:44:49;19.30;99.90
5940;DHT22;2995;-31.998;115.906;2023-05-07T06:47:20;19.30;99.90
5940;DHT22;2995;-31.998;115.906;2023-05-07T06:49:51;19.30;99.90
5940;DHT22;2995;-31.998;115.906;2023-05-07T06:52:23;19.30;99.90
5940;DHT22;2995;-31.998;115.906;2023-05-07T06:54:54;19.20;99.90
5940;DHT22;2995;-31.998;115.906;2023-05-07T06:57:27;19.30;99.90
5940;DHT22;2995;-31.998;115.906;2023-05-07T06:59:59;19.40;99.90
5940;DHT22;2995;-31.998;115.906;2023-05-07T07:02:30;19.30;99.90
5940;DHT22;2995;-31.998;115.906;2023-05-07T07:05:01;19.30;99.90
5940;DHT22;2995;-31.998;115.906;2023-05-07T07:07:32;19.30;99.90
5940;DHT22;2995;-31.998;115.906;2023-05-07T07:10:04;19.30;99.90
5940;DHT22;2995;-31.998;115.906;2023-05-07T07:12:37;19.30;99.90
5940;DHT22;2995;-31.998;115.906;2023-05-07T07:15:09;19.30;99.90
5940;DHT22;2995;-31.998;115.906;2023-05-07T07:17:41;19.30;99.90
5940;DHT22;2995;-31.998;115.906;2023-05-07T07:20:12;19.30;99.90
5940;DHT22;2995;-31.998;115.906;2023-05-07T07:22:44;19.30;99.90
5940;DHT22;2995;-31.998;115.906;2023-05-07T07:25:15;19.30;99.90
5940;DHT22;2995;-31.998;115.906;2023-05-07T07:27:50;19.30;99.90
5940;DHT22;2995;-31.998;115.906;2023-05-07T07:30:21;19.30;99.90
5940;DHT22;2995;-31.998;115.906;2023-05-07T07:32:52;19.30;99.90
5940;DHT22;2995;-31.998;115.906;2023-05-07T07:35:28;19.30;99.90
5940;DHT22;2995;-31.998;115.906;2023-05-07T07:37:59;19.30;99.90
5940;DHT22;2995;-31.998;115.906;2023-05-07T07:40:31;19.30;99.90
5940;DHT22;2995;-31.998;115.906;2023-05-07T07:43:04;19.40;99.90
5940;DHT22;2995;-31.998;115.906;2023-05-07T07:45:36;19.30;99.90
5940;DHT22;2995;-31.998;115.906;2023-05-07T07:48:07;19.50;99.90
5940;DHT22;2995;-31.998;115.906;2023-05-07T07:50:39;19.50;99.90
5940;DHT22;2995;-31.998;115.906;2023-05-07T07:53:10;19.50;99.90
5940;DHT22;2995;-31.998;115.906;2023-05-07T07:55:42;19.60;99.90
5940;DHT22;2995;-31.998;115.906;2023-05-07T07:58:15;19.60;99.90
5940;DHT22;2995;-31.998;115.906;2023-05-07T08:00:46;19.70;99.90
5940;DHT22;2995;-31.998;115.906;2023-05-07T08:03:18;19.70;99.90
5940;DHT22;2995;-31.998;115.906;2023-05-07T08:05:49;19.70;99.90
5940;DHT22;2995;-31.998;115.906;2023-05-07T08:08:20;19.70;99.90
5940;DHT22;2995;-31.998;115.906;2023-05-07T08:10:52;19.80;99.90
5940;DHT22;2995;-31.998;115.906;2023-05-07T08:13:26;19.80;99.90
5940;DHT22;2995;-31.998;115.906;2023-05-07T08:15:57;19.60;99.90
5940;DHT22;2995;-31.998;115.906;2023-05-07T08:18:28;19.60;99.90
5940;DHT22;2995;-31.998;115.906;2023-05-07T08:21:00;19.60;99.90
5940;DHT22;2995;-31.998;115.906;2023-05-07T08:23:31;19.70;99.90
5940;DHT22;2995;-31.998;115.906;2023-05-07T08:26:02;19.80;99.90
5940;DHT22;2995;-31.998;115.906;2023-05-07T08:28:35;19.70;99.90
5940;DHT22;2995;-31.998;115.906;2023-05-07T08:31:07;19.80;99.90
5940;DHT22;2995;-31.998;115.906;2023-05-07T08:33:38;19.70;99.90
5940;DHT22;2995;-31.998;115.906;2023-05-07T08:36:10;19.80;99.90
5940;DHT22;2995;-31.998;115.906;2023-05-07T08:38:42;19.80;99.90
5940;DHT22;2995;-31.998;115.906;2023-05-07T08:41:13;19.70;99.90
5940;DHT22;2995;-31.998;115.906;2023-05-07T08:43:48;19.60;99.90
5940;DHT22;2995;-31.998;115.906;2023-05-07T08:46:21;19.70;99.90
5940;DHT22;2995;-31.998;115.906;2023-05-07T08:48:52;19.70;99.90
5940;DHT22;2995;-31.998;115.906;2023-05-07T08:51:24;19.70;99.90
5940;DHT22;2995;-31.998;115.906;2023-05-07T08:53:55;19.70;99.90
5940;DHT22;2995;-31.998;115.906;2023-05-07T08:56:26;19.80;99.90
5940;DHT22;2995;-31.998;115.906;2023-05-07T08:59:00;19.70;99.90
5940;DHT22;2995;-31.998;115.906;2023-05-07T09:01:31;19.80;99.90
5940;DHT22;2995;-31.998;115.906;2023-05-07T09:04:04;19.80;99.90
5940;DHT22;2995;-31.998;115.906;2023-05-07T09:06:35;19.80;99.90
5940;DHT22;2995;-31.998;115.906;2023-05-07T09:09:09;19.70;99.90
5940;DHT22;2995;-31.998;115.906;2023-05-07T09:11:45;19.70;99.90
5940;DHT22;2995;-31.998;115.906;2023-05-07T09:14:18;19.70;99.90
5940;DHT22;2995;-31.998;115.906;2023-05-07T09:16:54;19.70;99.90
5940;DHT22;2995;-31.998;115.906;2023-05-07T09:19:25;19.70;99.90
5940;DHT22;2995;-31.998;115.906;2023-05-07T09:22:00;19.70;99.90
5940;DHT22;2995;-31.998;115.906;2023-05-07T09:24:31;19.70;99.90
5940;DHT22;2995;-31.998;115.906;2023-05-07T09:27:06;19.80;99.90
5940;DHT22;2995;-31.998;115.906;2023-05-07T09:29:44;19.80;99.90
5940;DHT22;2995;-31.998;115.906;2023-05-07T09:32:16;19.80;99.90
5940;DHT22;2995;-31.998;115.906;2023-05-07T09:34:47;19.80;99.90
5940;DHT22;2995;-31.998;115.906;2023-05-07T09:37:18;19.80;99.90
5940;DHT22;2995;-31.998;115.906;2023-05-07T09:39:50;19.80;99.90
5940;DHT22;2995;-31.998;115.906;2023-05-07T09:42:25;19.90;99.90
5940;DHT22;2995;-31.998;115.906;2023-05-07T09:44:59;19.90;99.90
5940;DHT22;2995;-31.998;115.906;2023-05-07T09:47:33;19.90;99.90
5940;DHT22;2995;-31.998;115.906;2023-05-07T09:50:14;19.70;99.90
5940;DHT22;2995;-31.998;115.906;2023-05-07T09:52:47;19.80;99.90
5940;DHT22;2995;-31.998;115.906;2023-05-07T09:55:19;19.80;99.90
5940;DHT22;2995;-31.998;115.906;2023-05-07T09:57:51;19.70;99.90
5940;DHT22;2995;-31.998;115.906;2023-05-07T10:00:26;19.70;99.90
5940;DHT22;2995;-31.998;115.906;2023-05-07T10:02:59;19.70;99.90
5940;DHT22;2995;-31.998;115.906;2023-05-07T10:05:31;19.70;99.90
5940;DHT22;2995;-31.998;115.906;2023-05-07T10:08:04;19.70;99.90
5940;DHT22;2995;-31.998;115.906;2023-05-07T10:10:35;19.70;99.90
5940;DHT22;2995;-31.998;115.906;2023-05-07T10:13:07;19.70;99.90
5940;DHT22;2995;-31.998;115.906;2023-05-07T10:15:42;19.70;99.90
5940;DHT22;2995;-31.998;115.906;2023-05-07T10:18:13;19.70;99.90
5940;DHT22;2995;-31.998;115.906;2023-05-07T10:20:47;19.80;99.90
5940;DHT22;2995;-31.998;115.906;2023-05-07T10:23:22;19.70;99.90
5940;DHT22;2995;-31.998;115.906;2023-05-07T10:25:54;19.70;99.90
5940;DHT22;2995;-31.998;115.906;2023-05-07T10:28:27;19.80;99.90
5940;DHT22;2995;-31.998;115.906;2023-05-07T10:31:14;19.70;99.90
5940;DHT22;2995;-31.998;115.906;2023-05-07T10:33:49;19.70;99.90
5940;DHT22;2995;-31.998;115.906;2023-05-07T10:36:22;19.70;99.90
5940;DHT22;2995;-31.998;115.906;2023-05-07T10:38:55;19.50;99.90
5940;DHT22;2995;-31.998;115.906;2023-05-07T10:41:26;19.60;99.90
5940;DHT22;2995;-31.998;115.906;2023-05-07T10:43:57;19.50;99.90
5940;DHT22;2995;-31.998;115.906;2023-05-07T10:46:32;19.60;99.90
5940;DHT22;2995;-31.998;115.906;2023-05-07T10:49:10;19.60;99.90
5940;DHT22;2995;-31.998;115.906;2023-05-07T10:51:42;19.70;99.90
5940;DHT22;2995;-31.998;115.906;2023-05-07T10:54:23;19.60;99.90
5940;DHT22;2995;-31.998;115.906;2023-05-07T10:56:55;19.50;99.90
5940;DHT22;2995;-31.998;115.906;2023-05-07T10:59:36;19.50;99.90
5940;DHT22;2995;-31.998;115.906;2023-05-07T11:02:14;19.60;99.90
5940;DHT22;2995;-31.998;115.906;2023-05-07T11:04:45;19.70;99.90
5940;DHT22;2995;-31.998;115.906;2023-05-07T11:07:33;19.50;99.90
5940;DHT22;2995;-31.998;115.906;2023-05-07T11:10:05;19.50;99.90
5940;DHT22;2995;-31.998;115.906;2023-05-07T11:12:50;19.50;99.90
5940;DHT22;2995;-31.998;115.906;2023-05-07T11:15:42;19.50;99.90
5940;DHT22;2995;-31.998;115.906;2023-05-07T11:18:17;19.60;99.90
5940;DHT22;2995;-31.998;115.906;2023-05-07T11:20:53;19.50;99.90
5940;DHT22;2995;-31.998;115.906;2023-05-07T11:26:47;19.60;99.90
5940;DHT22;2995;-31.998;115.906;2023-05-07T11:29:19;19.50;99.90
5940;DHT22;2995;-31.998;115.906;2023-05-07T11:31:51;19.50;99.90
5940;DHT22;2995;-31.998;115.906;2023-05-07T11:34:25;19.40;99.90
5940;DHT22;2995;-31.998;115.906;2023-05-07T11:36:57;19.40;99.90
5940;DHT22;2995;-31.998;115.906;2023-05-07T11:39:30;19.50;99.90
5940;DHT22;2995;-31.998;115.906;2023-05-07T11:42:04;19.40;99.90
5940;DHT22;2995;-31.998;115.906;2023-05-07T11:44:45;19.50;99.90
5940;DHT22;2995;-31.998;115.906;2023-05-07T11:47:19;19.50;99.90
5940;DHT22;2995;-31.998;115.906;2023-05-07T11:49:53;19.60;99.90
5940;DHT22;2995;-31.998;115.906;2023-05-07T11:52:25;19.50;99.90
5940;DHT22;2995;-31.998;115.906;2023-05-07T11:54:57;19.50;99.90
5940;DHT22;2995;-31.998;115.906;2023-05-07T11:57:29;19.60;99.90
5940;DHT22;2995;-31.998;115.906;2023-05-07T12:00:00;19.60;99.90
5940;DHT22;2995;-31.998;115.906;2023-05-07T12:02:32;19.60;99.90
5940;DHT22;2995;-31.998;115.906;2023-05-07T12:05:06;19.50;99.90
5940;DHT22;2995;-31.998;115.906;2023-05-07T12:07:37;19.40;99.90
5940;DHT22;2995;-31.998;115.906;2023-05-07T12:10:09;19.40;99.90
5940;DHT22;2995;-31.998;115.906;2023-05-07T12:12:45;19.50;99.90
5940;DHT22;2995;-31.998;115.906;2023-05-07T12:15:17;19.50;99.90
5940;DHT22;2995;-31.998;115.906;2023-05-07T12:17:53;19.50;99.90
5940;DHT22;2995;-31.998;115.906;2023-05-07T12:20:26;19.50;99.90
5940;DHT22;2995;-31.998;115.906;2023-05-07T12:22:58;19.60;99.90
5940;DHT22;2995;-31.998;115.906;2023-05-07T12:25:31;19.50;99.90
5940;DHT22;2995;-31.998;115.906;2023-05-07T12:28:03;19.40;99.90
5940;DHT22;2995;-31.998;115.906;2023-05-07T12:30:38;19.50;99.90
5940;DHT22;2995;-31.998;115.906;2023-05-07T12:33:09;19.40;99.90
5940;DHT22;2995;-31.998;115.906;2023-05-07T12:35:44;19.40;99.90
5940;DHT22;2995;-31.998;115.906;2023-05-07T12:38:16;19.40;99.90
5940;DHT22;2995;-31.998;115.906;2023-05-07T12:40:48;19.40;99.90
5940;DHT22;2995;-31.998;115.906;2023-05-07T12:43:20;19.70;99.90
5940;DHT22;2995;-31.998;115.906;2023-05-07T12:45:53;19.60;99.90
5940;DHT22;2995;-31.998;115.906;2023-05-07T12:48:25;19.70;99.90
5940;DHT22;2995;-31.998;115.906;2023-05-07T12:50:59;19.80;99.90
5940;DHT22;2995;-31.998;115.906;2023-05-07T12:53:31;19.80;99.90
5940;DHT22;2995;-31.998;115.906;2023-05-07T12:56:06;19.90;99.90
5940;DHT22;2995;-31.998;115.906;2023-05-07T12:58:38;19.90;99.90
5940;DHT22;2995;-31.998;115.906;2023-05-07T13:01:09;20.00;99.90
5940;DHT22;2995;-31.998;115.906;2023-05-07T13:03:49;19.90;99.90
5940;DHT22;2995;-31.998;115.906;2023-05-07T13:06:22;20.00;99.90
5940;DHT22;2995;-31.998;115.906;2023-05-07T13:08:54;19.90;99.90
5940;DHT22;2995;-31.998;115.906;2023-05-07T13:11:25;20.00;99.90
5940;DHT22;2995;-31.998;115.906;2023-05-07T13:13:56;19.90;99.90
5940;DHT22;2995;-31.998;115.906;2023-05-07T13:16:28;20.00;99.90
5940;DHT22;2995;-31.998;115.906;2023-05-07T13:18:59;20.00;99.90
5940;DHT22;2995;-31.998;115.906;2023-05-07T13:21:32;20.00;99.90
5940;DHT22;2995;-31.998;115.906;2023-05-07T13:24:03;20.10;99.90
5940;DHT22;2995;-31.998;115.906;2023-05-07T13:26:35;20.10;99.90
5940;DHT22;2995;-31.998;115.906;2023-05-07T13:29:06;20.10;99.90
5940;DHT22;2995;-31.998;115.906;2023-05-07T13:31:37;20.10;99.90
5940;DHT22;2995;-31.998;115.906;2023-05-07T13:34:10;20.10;99.90
5940;DHT22;2995;-31.998;115.906;2023-05-07T13:36:44;20.10;99.90
5940;DHT22;2995;-31.998;115.906;2023-05-07T13:39:15;20.00;99.90
5940;DHT22;2995;-31.998;115.906;2023-05-07T13:41:47;20.00;99.90
5940;DHT22;2995;-31.998;115.906;2023-05-07T13:44:18;20.10;99.90
5940;DHT22;2995;-31.998;115.906;2023-05-07T13:46:49;20.00;99.90
5940;DHT22;2995;-31.998;115.906;2023-05-07T13:49:20;20.10;99.90
5940;DHT22;2995;-31.998;115.906;2023-05-07T13:51:54;20.10;99.90
5940;DHT22;2995;-31.998;115.906;2023-05-07T13:54:25;20.10;99.90
5940;DHT22;2995;-31.998;115.906;2023-05-07T13:56:56;20.10;99.90
5940;DHT22;2995;-31.998;115.906;2023-05-07T13:59:27;20.10;99.90
5940;DHT22;2995;-31.998;115.906;2023-05-07T14:01:58;20.20;99.90
5940;DHT22;2995;-31.998;115.906;2023-05-07T14:04:30;20.10;99.90
5940;DHT22;2995;-31.998;115.906;2023-05-07T14:07:03;20.20;99.90
5940;DHT22;2995;-31.998;115.906;2023-05-07T14:09:35;20.20;99.90
5940;DHT22;2995;-31.998;115.906;2023-05-07T14:12:07;20.10;99.90
5940;DHT22;2995;-31.998;115.906;2023-05-07T14:14:38;20.10;99.90
5940;DHT22;2995;-31.998;115.906;2023-05-07T14:17:09;20.10;99.90
5940;DHT22;2995;-31.998;115.906;2023-05-07T14:19:41;20.10;99.90
5940;DHT22;2995;-31.998;115.906;2023-05-07T14:22:14;20.10;99.90
5940;DHT22;2995;-31.998;115.906;2023-05-07T14:24:45;20.00;99.90
5940;DHT22;2995;-31.998;115.906;2023-05-07T14:27:17;20.00;99.90
5940;DHT22;2995;-31.998;115.906;2023-05-07T14:29:48;20.00;99.90
5940;DHT22;2995;-31.998;115.906;2023-05-07T14:32:20;20.00;99.90
5940;DHT22;2995;-31.998;115.906;2023-05-07T14:34:51;20.00;99.90
5940;DHT22;2995;-31.998;115.906;2023-05-07T14:37:24;20.00;99.90
5940;DHT22;2995;-31.998;115.906;2023-05-07T14:39:56;19.90;99.90
5940;DHT22;2995;-31.998;115.906;2023-05-07T14:42:27;20.00;99.90
5940;DHT22;2995;-31.998;115.906;2023-05-07T14:44:58;19.90;99.90
5940;DHT22;2995;-31.998;115.906;2023-05-07T14:47:29;19.90;99.90
5940;DHT22;2995;-31.998;115.906;2023-05-07T14:50:01;19.90;99.90
5940;DHT22;2995;-31.998;115.906;2023-05-07T14:52:34;19.90;99.90
5940;DHT22;2995;-31.998;115.906;2023-05-07T14:55:05;19.90;99.90
5940;DHT22;2995;-31.998;115.906;2023-05-07T14:57:37;19.90;99.90
5940;DHT22;2995;-31.998;115.906;2023-05-07T15:00:09;19.90;99.90
5940;DHT22;2995;-31.998;115.906;2023-05-07T15:02:41;19.90;99.90
5940;DHT22;2995;-31.998;115.906;2023-05-07T15:05:13;19.90;99.90
5940;DHT22;2995;-31.998;115.906;2023-05-07T15:07:48;19.90;99.90
5940;DHT22;2995;-31.998;115.906;2023-05-07T15:10:19;19.90;99.90
5940;DHT22;2995;-31.998;115.906;2023-05-07T15:12:51;19.90;99.90
5940;DHT22;2995;-31.998;115.906;2023-05-07T15:15:22;19.90;99.90
5940;DHT22;2995;-31.998;115.906;2023-05-07T15:17:53;19.90;99.90
5940;DHT22;2995;-31.998;115.906;2023-05-07T15:20:24;20.00;99.90
5940;DHT22;2995;-31.998;115.906;2023-05-07T15:22:58;19.80;99.90
5940;DHT22;2995;-31.998;115.906;2023-05-07T15:25:29;19.90;99.90
5940;DHT22;2995;-31.998;115.906;2023-05-07T15:28:01;19.90;99.90
5940;DHT22;2995;-31.998;115.906;2023-05-07T15:30:33;19.90;99.90
5940;DHT22;2995;-31.998;115.906;2023-05-07T15:33:04;19.90;99.90
5940;DHT22;2995;-31.998;115.906;2023-05-07T15:35:35;20.00;99.90
5940;DHT22;2995;-31.998;115.906;2023-05-07T15:38:08;20.00;99.90
5940;DHT22;2995;-31.998;115.906;2023-05-07T15:40:41;20.00;99.90
5940;DHT22;2995;-31.998;115.906;2023-05-07T15:43:13;20.00;99.90
5940;DHT22;2995;-31.998;115.906;2023-05-07T15:45:44;20.00;99.90
5940;DHT22;2995;-31.998;115.906;2023-05-07T15:48:15;20.00;99.90
5940;DHT22;2995;-31.998;115.906;2023-05-07T15:50:47;20.00;99.90